Map

Track Data

SID SEASON NUMBER BASIN SUBBASIN NAME ISO_TIME NATURE LAT LON WMO_WIND WMO_PRES WMO_AGENCY TRACK_TYPE DIST2LAND LANDFALL IFLAG USA_AGENCY USA_ATCF_ID USA_LAT USA_LON USA_RECORD USA_STATUS USA_WIND USA_PRES USA_SSHS USA_R34_NE USA_R34_SE USA_R34_SW USA_R34_NW USA_R50_NE USA_R50_SE USA_R50_SW USA_R50_NW USA_R64_NE USA_R64_SE USA_R64_SW USA_R64_NW USA_POCI USA_ROCI USA_RMW USA_EYE TOKYO_LAT TOKYO_LON TOKYO_GRADE TOKYO_WIND TOKYO_PRES TOKYO_R50_DIR TOKYO_R50_LONG TOKYO_R50_SHORT TOKYO_R30_DIR TOKYO_R30_LONG TOKYO_R30_SHORT TOKYO_LAND CMA_LAT CMA_LON CMA_CAT CMA_WIND CMA_PRES HKO_LAT HKO_LON HKO_CAT HKO_WIND HKO_PRES NEWDELHI_LAT NEWDELHI_LON NEWDELHI_GRADE NEWDELHI_WIND NEWDELHI_PRES NEWDELHI_CI NEWDELHI_DP NEWDELHI_POCI REUNION_LAT REUNION_LON REUNION_TYPE REUNION_WIND REUNION_PRES REUNION_TNUM REUNION_CI REUNION_RMW REUNION_R34_NE REUNION_R34_SE REUNION_R34_SW REUNION_R34_NW REUNION_R50_NE REUNION_R50_SE REUNION_R50_SW REUNION_R50_NW REUNION_R64_NE REUNION_R64_SE REUNION_R64_SW REUNION_R64_NW BOM_LAT BOM_LON BOM_TYPE BOM_WIND BOM_PRES BOM_TNUM BOM_CI BOM_RMW BOM_R34_NE BOM_R34_SE BOM_R34_SW BOM_R34_NW BOM_R50_NE BOM_R50_SE BOM_R50_SW BOM_R50_NW BOM_R64_NE BOM_R64_SE BOM_R64_SW BOM_R64_NW BOM_ROCI BOM_POCI BOM_EYE BOM_POS_METHOD BOM_PRES_METHOD NADI_LAT NADI_LON NADI_CAT NADI_WIND NADI_PRES WELLINGTON_LAT WELLINGTON_LON WELLINGTON_WIND WELLINGTON_PRES DS824_LAT DS824_LON DS824_STAGE DS824_WIND DS824_PRES TD9636_LAT TD9636_LON TD9636_STAGE TD9636_WIND TD9636_PRES TD9635_LAT TD9635_LON TD9635_WIND TD9635_PRES TD9635_ROCI NEUMANN_LAT NEUMANN_LON NEUMANN_CLASS NEUMANN_WIND NEUMANN_PRES MLC_LAT MLC_LON MLC_CLASS MLC_WIND MLC_PRES USA_GUST BOM_GUST BOM_GUST_PER REUNION_GUST REUNION_GUST_PER USA_SEAHGT USA_SEARAD_NE USA_SEARAD_SE USA_SEARAD_SW USA_SEARAD_NW STORM_SPEED STORM_DIR
1884200N21089 1884 20 NI BB NOT_NAMED 1884-07-18 00:00:00 TS 20.5000 88.7000 main 124 124 _________O____ -1 20.5000 88.7000 TC 30 1 307
1884200N21089 1884 20 NI BB NOT_NAMED 1884-07-18 03:00:00 TS 20.5333 88.6667 main 124 112 _________PO___ -1 20.5500 88.6500 TC 30 20.5000 88.7000 1 1 322
1884200N21089 1884 20 NI BB NOT_NAMED 1884-07-18 06:00:00 TS 20.5825 88.6219 main 112 112 _________OP___ -1 20.6000 88.6000 TC 30 20.5563 88.6547 1 1 319
1884200N21089 1884 20 NI BB NOT_NAMED 1884-07-18 09:00:00 TS 20.6329 88.5747 main 112 100 _________PP___ -1 20.6500 88.5500 TC 30 20.6100 88.6075 1 1 318
1884200N21089 1884 20 NI BB NOT_NAMED 1884-07-18 12:00:00 TS 20.6794 88.5283 main 100 100 _________OP___ -1 20.7000 88.5000 TC 30 20.6588 88.5566 1 1 317
1884200N21089 1884 20 NI BB NOT_NAMED 1884-07-18 15:00:00 TS 20.7287 88.4788 main 100 89 _________PO___ -1 20.7575 88.4575 TC 30 20.7000 88.5000 1 1 309
1884200N21089 1884 20 NI BB NOT_NAMED 1884-07-18 18:00:00 TS 20.7661 88.4181 main 89 89 _________OP___ -1 20.8000 88.4000 TC 30 20.7322 88.4362 1 1 292
1884200N21089 1884 20 NI BB NOT_NAMED 1884-07-18 21:00:00 TS 20.7825 88.3362 main 89 89 _________PP___ -1 20.8075 88.3075 TC 30 20.7575 88.3650 1 2 278
1884200N21089 1884 20 NI BB NOT_NAMED 1884-07-19 00:00:00 TS 20.7895 88.2431 main 89 89 _________OP___ -1 20.8000 88.2000 TC 30 20.7790 88.2862 1 2 275
1884200N21089 1884 20 NI BB NOT_NAMED 1884-07-19 03:00:00 TS 20.7962 88.1500 main 89 90 _________PO___ -1 20.7925 88.1000 TC 30 20.8000 88.2000 1 2 277
1884200N21089 1884 20 NI BB NOT_NAMED 1884-07-19 06:00:00 TS 20.8105 88.0495 main 91 91 _________OP___ -1 20.8000 88.0000 TC 30 20.8210 88.0991 1 2 284
1884200N21089 1884 20 NI BB NOT_NAMED 1884-07-19 09:00:00 TS 20.8425 87.9425 main 93 83 _________PP___ -1 20.8425 87.8925 TC 30 20.8425 87.9925 1 2 291
1884200N21089 1884 20 NI BB NOT_NAMED 1884-07-19 12:00:00 TS 20.8839 87.8448 main 83 83 _________OP___ -1 20.9000 87.8000 TC 30 20.8678 87.8897 1 2 298
1884200N21089 1884 20 NI BB NOT_NAMED 1884-07-19 15:00:00 TS 20.9250 87.7712 main 83 73 _________PO___ -1 20.9500 87.7425 TC 30 20.9000 87.8000 1 1 307
1884200N21089 1884 20 NI BB NOT_NAMED 1884-07-19 18:00:00 TS 20.9734 87.7198 main 73 73 _________OP___ -1 21.0000 87.7000 TC 30 20.9468 87.7397 1 1 319
1884200N21089 1884 20 NI BB NOT_NAMED 1884-07-19 21:00:00 TS 21.0287 87.6750 main 73 59 _________PP___ -1 21.0575 87.6575 TC 30 20.9999 87.6925 1 1 319
1884200N21089 1884 20 NI BB NOT_NAMED 1884-07-20 00:00:00 TS 21.0765 87.6245 main 59 59 _________OP___ -1 21.1000 87.6000 TC 30 21.0531 87.6491 1 1 301
1884200N21089 1884 20 NI BB NOT_NAMED 1884-07-20 03:00:00 TS 21.1000 87.5500 main 59 56 _________PO___ -1 21.1000 87.5000 TC 30 21.1000 87.6000 1 2 285
1884200N21089 1884 20 NI BB NOT_NAMED 1884-07-20 06:00:00 TS 21.1161 87.4661 main 56 44 _________OP___ -1 21.1000 87.4000 TC 30 21.1322 87.5322 1 1 291
1884200N21089 1884 20 NI BB NOT_NAMED 1884-07-20 09:00:00 TS 21.1537 87.4037 main 44 38 _________PP___ -1 21.1500 87.3500 TC 30 21.1575 87.4575 1 1 302
1884200N21089 1884 20 NI BB NOT_NAMED 1884-07-20 12:00:00 TS 21.1895 87.3395 main 38 38 _________OP___ -1 21.2000 87.3000 TC 30 21.1791 87.3791 1 2 288
1884200N21089 1884 20 NI BB NOT_NAMED 1884-07-20 15:00:00 TS 21.2000 87.2500 main 38 30 _________PO___ -1 21.2000 87.2000 TC 30 21.2000 87.3000 1 2 278
1884200N21089 1884 20 NI BB NOT_NAMED 1884-07-20 18:00:00 TS 21.2125 87.1625 main 30 23 _________OP___ -1 21.2000 87.1000 TC 30 21.2250 87.2250 1 1 290
1884200N21089 1884 20 NI BB NOT_NAMED 1884-07-20 21:00:00 TS 21.2500 87.1000 main 23 10 _________PP___ -1 21.2500 87.0500 TC 30 21.2500 87.1500 1 1 302
1884200N21089 1884 20 NI BB NOT_NAMED 1884-07-21 00:00:00 TS 21.2875 87.0375 main 10 10 _________OP___ -1 21.3000 87.0000 TC 30 21.2750 87.0750 1 1 290
1884200N21089 1884 20 NI BB NOT_NAMED 1884-07-21 03:00:00 TS 21.3000 86.9500 main 0 0 _________PO___ -1 21.3000 86.9000 TC 30 21.3000 87.0000 1 2 279
1884200N21089 1884 20 NI BB NOT_NAMED 1884-07-21 06:00:00 TS 21.3125 86.8605 main 0 0 _________OP___ -1 21.3000 86.8000 TC 30 21.3250 86.9209 1 2 288
1884200N21089 1884 20 NI BB NOT_NAMED 1884-07-21 09:00:00 TS 21.3500 86.7925 main 0 0 _________PP___ -1 21.3500 86.7425 TC 30 21.3500 86.8425 1 1 302
1884200N21089 1884 20 NI BB NOT_NAMED 1884-07-21 12:00:00 TS 21.3875 86.7339 main 0 0 _________OP___ -1 21.4000 86.7000 TC 30 21.3750 86.7678 1 1 294
1884200N21089 1884 20 NI BB NOT_NAMED 1884-07-21 15:00:00 TS 21.4000 86.6750 main 0 0 _________PO___ -1 21.4000 86.6500 TC 30 21.4000 86.7000 1 1 282
1884200N21089 1884 20 NI BB NOT_NAMED 1884-07-21 18:00:00 TS 21.4042 86.6457 main 0 0 _________OP___ -1 21.4000 86.6000 TC 30 21.4085 86.6913 1 0 306
1884200N21089 1884 20 NI BB NOT_NAMED 1884-07-21 21:00:00 TS 21.4234 86.6385 main 0 0 _________PP___ -1 21.4274 86.5949 TC 30 21.4195 86.6820 1 1 311
1884200N21089 1884 20 NI BB NOT_NAMED 1884-07-22 00:00:00 TS 21.4729 86.5659 main 0 0 _________OP___ -1 21.5000 86.5000 TC 30 21.4458 86.6318 1 3 299
1884200N21089 1884 20 NI BB NOT_NAMED 1884-07-22 03:00:00 TS 21.5713 86.3476 main 0 0 _________PO___ -1 21.6426 86.1952 TC 30 21.5000 86.5000 1 6 294
1884200N21089 1884 20 NI BB NOT_NAMED 1884-07-22 06:00:00 TS 21.7045 86.0123 main 0 0 _________OP___ -1 21.8000 85.8000 TC 30 21.6090 86.2246 1 7 292
1884200N21089 1884 20 NI BB NOT_NAMED 1884-07-22 09:00:00 TS 21.8291 85.6516 main 0 0 _________PP___ -1 21.9150 85.4350 TC 30 21.7433 85.8683 1 7 289
1884200N21089 1884 20 NI BB NOT_NAMED 1884-07-22 12:00:00 TS 21.9404 85.2889 main 0 0 _________OP___ -1 22.0000 85.1000 TC 30 21.8808 85.4777 1 7 288
1884200N21089 1884 20 NI BB NOT_NAMED 1884-07-22 15:00:00 TS 22.0287 84.9712 main 0 0 _________PO___ -1 22.0573 84.8424 TC 30 22.0000 85.1000 1 6 285
1884200N21089 1884 20 NI BB NOT_NAMED 1884-07-22 18:00:00 TS 22.0876 84.7036 main 0 0 _________OP___ -1 22.1000 84.6000 TC 30 22.0752 84.8072 1 5 282
1884200N21089 1884 20 NI BB NOT_NAMED 1884-07-22 21:00:00 TS 22.1397 84.4211 main 0 0 _________PP___ -1 22.1500 84.3075 TC 30 22.1295 84.5347 1 5 280
1884200N21089 1884 20 NI BB NOT_NAMED 1884-07-23 00:00:00 TS 22.1845 84.1349 main 0 0 _________OP___ -1 22.2000 84.0000 TC 30 22.1690 84.2698 1 5 280
1884200N21089 1884 20 NI BB NOT_NAMED 1884-07-23 03:00:00 TS 22.2287 83.8500 main 0 0 _________PO___ -1 22.2574 83.7000 TC 30 22.2000 84.0000 1 6 279
1884200N21089 1884 20 NI BB NOT_NAMED 1884-07-23 06:00:00 TS 22.2661 83.5475 main 0 0 _________OP___ -1 22.3000 83.4000 TC 30 22.2322 83.6949 1 6 275
1884200N21089 1884 20 NI BB NOT_NAMED 1884-07-23 09:00:00 TS 22.2825 83.2387 main 0 0 _________PP___ -1 22.3075 83.0925 TC 30 22.2576 83.3849 1 6 272
1884200N21089 1884 20 NI BB NOT_NAMED 1884-07-23 12:00:00 TS 22.2896 82.9412 main 0 0 _________OP___ -1 22.3000 82.8000 TC 30 22.2791 83.0824 1 5 271
1884200N21089 1884 20 NI BB NOT_NAMED 1884-07-23 15:00:00 TS 22.2962 82.6675 main 0 0 _________PO___ -1 22.2925 82.5350 TC 30 22.3000 82.8000 1 5 272
1884200N21089 1884 20 NI BB NOT_NAMED 1884-07-23 18:00:00 TS 22.3084 82.4206 main 0 0 _________OP___ -1 22.3000 82.3000 TC 30 22.3167 82.5412 1 4 276
1884200N21089 1884 20 NI BB NOT_NAMED 1884-07-23 21:00:00 TS 22.3386 82.1950 main 0 0 _________PP___ -1 22.3425 82.0850 TC 30 22.3348 82.3049 1 4 280
1884200N21089 1884 20 NI BB NOT_NAMED 1884-07-24 00:00:00 TS 22.3803 81.9956 main 0 0 _________OP___ -1 22.4000 81.9000 TC 30 22.3605 82.0912 1 4 283
1884200N21089 1884 20 NI BB NOT_NAMED 1884-07-24 03:00:00 TS 22.4212 81.8212 main 0 0 _________PO___ -1 22.4425 81.7425 TC 30 22.4000 81.9000 1 3 288
1884200N21089 1884 20 NI BB NOT_NAMED 1884-07-24 06:00:00 TS 22.4802 81.6642 main 0 0 _________OP___ -1 22.5000 81.6000 TC 30 22.4605 81.7284 1 3 297
1884200N21089 1884 20 NI BB NOT_NAMED 1884-07-24 09:00:00 TS 22.5674 81.5138 main 0 0 _________PP___ -1 22.6000 81.4500 TC 30 22.5348 81.5775 1 3 303
1884200N21089 1884 20 NI BB NOT_NAMED 1884-07-24 12:00:00 TS 22.6584 81.3689 main 0 0 _________OP___ -1 22.7000 81.3000 TC 30 22.6167 81.4378 1 3 301
1884200N21089 1884 20 NI BB NOT_NAMED 1884-07-24 15:00:00 TS 22.7250 81.2250 main 0 0 _________PO___ -1 22.7500 81.1499 TC 30 22.7000 81.3000 1 3 294
1884200N21089 1884 20 NI BB NOT_NAMED 1884-07-24 18:00:00 TS 22.7732 81.0849 main 0 0 _________OP___ -1 22.8000 81.0000 TC 30 22.7464 81.1698 1 3 294
1884200N21089 1884 20 NI BB NOT_NAMED 1884-07-24 21:00:00 TS 22.8373 80.9545 main 0 0 _________PP___ -1 22.8774 80.8724 TC 30 22.7972 81.0367 1 3 301
1884200N21089 1884 20 NI BB NOT_NAMED 1884-07-25 00:00:00 TS 22.9372 80.7926 main 0 0 _________OP___ -1 23.0000 80.7000 TC 30 22.8744 80.8853 1 4 304
1884200N21089 1884 20 NI BB NOT_NAMED 1884-07-25 03:00:00 TS 23.0850 80.5575 main 0 0 _________PO___ -1 23.1701 80.4150 TC 30 23.0000 80.7000 1 6 307
1884200N21089 1884 20 NI BB NOT_NAMED 1884-07-25 06:00:00 TS 23.2979 80.2786 main 0 0 _________OP___ -1 23.4000 80.1000 TC 30 23.1958 80.4572 1 7 314
1884200N21089 1884 20 NI BB NOT_NAMED 1884-07-25 09:00:00 TS 23.5626 80.0114 main 0 0 _________PP___ -1 23.6849 79.8424 TC 30 23.4402 80.1804 1 7 319
1884200N21089 1884 20 NI BB NOT_NAMED 1884-07-25 12:00:00 TS 23.8573 79.7442 main 0 0 _________OP___ -1 24.0000 79.6000 TC 30 23.7145 79.8883 1 8 320
1884200N21089 1884 20 NI BB NOT_NAMED 1884-07-25 15:00:00 TS 24.1537 79.4750 main 0 0 _________PO___ -1 24.3075 79.3499 TC 30 24.0000 79.6000 1 8 320
1884200N21089 1884 20 NI BB NOT_NAMED 1884-07-25 18:00:00 TS 24.4440 79.2134 main 0 0 _________OP___ -1 24.6000 79.1000 TC 30 24.2881 79.3267 1 7 320
1884200N21089 1884 20 NI BB NOT_NAMED 1884-07-25 21:00:00 TS 24.7263 78.9489 main 0 0 _________PP___ -1 24.8725 78.8350 TC 30 24.5800 79.0628 1 7 319
1884200N21089 1884 20 NI BB NOT_NAMED 1884-07-26 00:00:00 TS 24.9784 78.7087 main 0 0 _________OP___ -1 25.1000 78.6000 TC 30 24.8569 78.8174 1 6 319
1884200N21089 1884 20 NI BB NOT_NAMED 1884-07-26 03:00:00 TS 25.1825 78.5174 main 0 0 _________PO___ -1 25.2649 78.4348 TC 30 25.1000 78.6000 1 5 319
1884200N21089 1884 20 NI BB NOT_NAMED 1884-07-26 06:00:00 TS 25.3408 78.3623 main 0 0 _________OP___ -1 25.4000 78.3000 TC 30 25.2816 78.4246 1 4 319
1884200N21089 1884 20 NI BB NOT_NAMED 1884-07-26 09:00:00 TS 25.4898 78.2170 main 0 0 _________PP___ -1 25.5500 78.1574 TC 30 25.4297 78.2766 1 4 318
1884200N21089 1884 20 NI BB NOT_NAMED 1884-07-26 12:00:00 TS 25.6314 78.0702 main 0 0 _________OP___ -1 25.7000 78.0000 TC 30 25.5629 78.1404 1 4 315
1884200N21089 1884 20 NI AS NOT_NAMED 1884-07-26 15:00:00 TS 25.7713 77.9000 main 0 0 _________PO___ -1 25.8425 77.8000 TC 30 25.7000 78.0000 1 4 314
1884200N21089 1884 20 NI AS NOT_NAMED 1884-07-26 18:00:00 TS 25.9174 77.7389 main 0 0 _________OP___ -1 26.0000 77.6000 TC 30 25.8555 77.8431 1 4 318
1884200N21089 1884 20 NI AS NOT_NAMED 1884-07-26 21:00:00 TS 26.0927 77.5775 main 0 0 _________PP___ -1 26.1900 77.4376 TC 30 26.0278 77.6708 1 5 322
1884200N21089 1884 20 NI AS NOT_NAMED 1884-07-27 00:00:00 TS 26.2742 77.4255 main 0 0 _________OP___ -1 26.4000 77.3000 TC 30 26.2112 77.4882 1 4 321
1884200N21089 1884 20 NI AS NOT_NAMED 1884-07-27 03:00:00 NR 26.4000 77.3000 main 0 __________O___ -1 TC 26.4000 77.3000 1 3 319

About IBTrACS Database

This database is a web-friendly format of International Best Track Archive for Climate Stewardship (IBTrACS), a global best track data archive curated by NOAA dating back to 1842.

Updated: 2021-10-08